Time,TemperatureF,DewpointF,PressureIn,WindDirection,WindDirectionDegrees,WindSpeedMPH,WindSpeedGustMPH,Humidity,HourlyPrecipIn,Conditions,Clouds,dailyrainin,SoftwareType,DateUTC
2013-01-30 00:02:00,18.7,16.3,29.71,NNW,331,3.0,14.0,90,0.00,,---,0.05,VWS V13.01,2013-01-30 06:02:00,
2013-01-30 00:07:00,18.6,16.2,29.71,NNW,337,9.0,14.0,90,0.00,,---,0.00,VWS V13.01,2013-01-30 06:07:00,
2013-01-30 00:12:00,18.5,16.1,29.71,WNW,288,3.0,14.0,90,0.00,,---,0.00,VWS V13.01,2013-01-30 06:12:00,
2013-01-30 00:17:00,18.5,16.3,29.69,WNW,296,6.0,10.0,91,0.00,,---,0.00,VWS V13.01,2013-01-30 06:17:00,
2013-01-30 00:23:00,18.4,16.2,29.69,NNW,327,3.0,12.0,91,0.00,,---,0.00,VWS V13.01,2013-01-30 06:23:00,
2013-01-30 00:28:00,18.4,16.2,29.69,NNW,329,5.0,12.0,91,0.00,,---,0.00,VWS V13.01,2013-01-30 06:28:00,
2013-01-30 00:33:00,18.3,16.1,29.69,NW,311,4.0,9.0,91,0.00,,---,0.00,VWS V13.01,2013-01-30 06:33:00,
2013-01-30 00:38:00,18.3,16.1,29.69,NW,312,4.0,11.0,91,0.00,,---,0.00,VWS V13.01,2013-01-30 06:38:00,
2013-01-30 00:44:00,18.2,16.0,29.69,NW,305,4.0,11.0,91,0.00,,---,0.00,VWS V13.01,2013-01-30 06:44:00,
2013-01-30 00:49:00,18.1,15.9,29.69,NNW,332,5.0,5.0,91,0.00,,---,0.00,VWS V13.01,2013-01-30 06:49:00,
2013-01-30 00:54:00,18.1,15.9,29.69,WNW,299,6.0,12.0,91,0.00,,---,0.00,VWS V13.01,2013-01-30 06:54:00,
2013-01-30 00:59:00,18.0,15.8,29.69,NNW,327,0.0,12.0,91,0.00,,---,0.00,VWS V13.01,2013-01-30 06:59:00,
2013-01-30 01:05:00,18.0,15.8,29.68,WNW,290,3.0,7.0,91,0.00,,---,0.00,VWS V13.01,2013-01-30 07:05:00,
2013-01-30 01:10:00,17.9,15.7,29.68,WNW,298,6.0,11.0,91,0.00,,---,0.00,VWS V13.01,2013-01-30 07:10:00,
2013-01-30 01:15:00,17.9,15.7,29.68,NNW,340,4.0,12.0,91,0.00,,---,0.00,VWS V13.01,2013-01-30 07:15:00,
2013-01-30 01:20:00,17.9,15.7,29.70,WNW,290,9.0,11.0,91,0.00,,---,0.00,VWS V13.01,2013-01-30 07:20:00,
2013-01-30 01:26:00,17.9,15.7,29.70,NW,304,0.0,11.0,91,0.00,,---,0.00,VWS V13.01,2013-01-30 07:26:00,
2013-01-30 01:31:00,17.8,15.6,29.67,NNW,331,0.0,11.0,91,0.00,,---,0.00,VWS V13.01,2013-01-30 07:31:00,
2013-01-30 01:36:00,17.7,15.5,29.67,NNW,340,5.0,9.0,91,0.00,,---,0.00,VWS V13.01,2013-01-30 07:36:00,
2013-01-30 01:42:00,17.7,15.5,29.67,North,360,4.0,12.0,91,0.00,,---,0.00,VWS V13.01,2013-01-30 07:42:00,
2013-01-30 01:47:00,17.6,15.4,29.69,NW,311,5.0,12.0,91,0.00,,---,0.00,VWS V13.01,2013-01-30 07:47:00,
2013-01-30 01:52:00,17.6,15.2,29.69,NNW,342,3.0,10.0,90,0.00,,---,0.00,VWS V13.01,2013-01-30 07:52:00,
2013-01-30 01:57:00,17.5,15.1,29.69,NW,315,6.0,11.0,90,0.00,,---,0.00,VWS V13.01,2013-01-30 07:57:00,
2013-01-30 02:02:00,17.4,15.0,29.68,North,355,9.0,12.0,90,0.00,,---,0.00,VWS V13.01,2013-01-30 08:02:00,
2013-01-30 02:08:00,17.2,14.5,29.68,NNW,328,5.0,12.0,89,0.00,,---,0.00,VWS V13.01,2013-01-30 08:08:00,
2013-01-30 02:13:00,17.1,14.4,29.68,NW,325,6.0,12.0,89,0.00,,---,0.00,VWS V13.01,2013-01-30 08:13:00,
2013-01-30 02:18:00,17.0,14.6,29.65,NNW,337,5.0,5.0,90,0.00,,---,0.00,VWS V13.01,2013-01-30 08:18:00,
2013-01-30 02:23:00,16.9,14.2,29.65,NNW,331,9.0,10.0,89,0.00,,---,0.00,VWS V13.01,2013-01-30 08:23:00,
2013-01-30 02:29:00,16.8,14.4,29.65,NNW,330,4.0,12.0,90,0.00,,---,0.00,VWS V13.01,2013-01-30 08:29:00,
2013-01-30 02:34:00,16.7,14.3,29.66,WNW,303,6.0,10.0,90,0.00,,---,0.00,VWS V13.01,2013-01-30 08:34:00,
2013-01-30 02:39:00,16.5,14.1,29.66,NNW,330,11.0,12.0,90,0.00,,---,0.00,VWS V13.01,2013-01-30 08:39:00,
2013-01-30 02:44:00,16.4,14.0,29.66,WNW,296,4.0,14.0,90,0.00,,---,0.00,VWS V13.01,2013-01-30 08:44:00,
2013-01-30 02:49:00,16.3,13.9,29.65,NNW,331,3.0,9.0,90,0.00,,---,0.00,VWS V13.01,2013-01-30 08:49:00,
2013-01-30 02:55:00,16.2,13.8,29.65,WNW,302,5.0,13.0,90,0.00,,---,0.00,VWS V13.01,2013-01-30 08:55:00,
2013-01-30 03:00:00,16.1,13.7,29.65,NNW,339,6.0,15.0,90,0.00,,---,0.00,VWS V13.01,2013-01-30 09:00:00,
2013-01-30 03:05:00,16.1,13.7,29.67,NNW,339,5.0,9.0,90,0.00,,---,0.00,VWS V13.01,2013-01-30 09:05:00,
2013-01-30 03:10:00,16.0,13.6,29.67,NNW,331,3.0,13.0,90,0.00,,---,0.00,VWS V13.01,2013-01-30 09:10:00,
2013-01-30 03:16:00,15.9,13.5,29.66,NNW,333,5.0,13.0,90,0.00,,---,0.00,VWS V13.01,2013-01-30 09:16:00,
2013-01-30 03:21:00,15.8,13.4,29.66,NW,319,4.0,11.0,90,0.00,,---,0.00,VWS V13.01,2013-01-30 09:21:00,
2013-01-30 03:26:00,15.7,13.3,29.66,NNW,336,6.0,11.0,90,0.00,,---,0.00,VWS V13.01,2013-01-30 09:26:00,
2013-01-30 03:31:00,15.7,13.5,29.64,North,355,2.0,12.0,91,0.00,,---,0.00,VWS V13.01,2013-01-30 09:31:00,
2013-01-30 03:37:00,15.6,13.4,29.64,North,9,7.0,12.0,91,0.00,,---,0.00,VWS V13.01,2013-01-30 09:37:00,
2013-01-30 03:42:00,15.5,13.4,29.64,NNW,340,9.0,12.0,91,0.00,,---,0.00,VWS V13.01,2013-01-30 09:42:00,
2013-01-30 03:47:00,15.4,13.0,29.64,NNW,328,7.0,7.0,90,0.00,,---,0.00,VWS V13.01,2013-01-30 09:47:00,
2013-01-30 03:52:00,15.3,12.9,29.64,North,355,3.0,11.0,90,0.00,,---,0.00,VWS V13.01,2013-01-30 09:52:00,
2013-01-30 03:58:00,15.3,12.9,29.64,NNW,342,11.0,15.0,90,0.00,,---,0.00,VWS V13.01,2013-01-30 09:58:00,
2013-01-30 04:03:00,15.2,12.8,29.64,NNW,344,7.0,8.0,90,0.00,,---,0.00,VWS V13.01,2013-01-30 10:03:00,
2013-01-30 04:08:00,15.2,12.8,29.64,North,5,6.0,17.0,90,0.00,,---,0.00,VWS V13.01,2013-01-30 10:08:00,
2013-01-30 04:13:00,15.2,12.8,29.64,NNW,345,2.0,17.0,90,0.00,,---,0.00,VWS V13.01,2013-01-30 10:13:00,
2013-01-30 04:19:00,15.0,12.6,29.66,North,360,3.0,10.0,90,0.00,,---,0.00,VWS V13.01,2013-01-30 10:19:00,
2013-01-30 04:24:00,14.9,12.5,29.66,North,355,3.0,15.0,90,0.00,,---,0.00,VWS V13.01,2013-01-30 10:24:00,
2013-01-30 04:29:00,14.6,11.9,29.66,NNE,23,10.0,15.0,89,0.00,,---,0.00,VWS V13.01,2013-01-30 10:29:00,
2013-01-30 04:35:00,14.5,12.1,29.66,North,5,2.0,7.0,90,0.00,,---,0.00,VWS V13.01,2013-01-30 10:35:00,
2013-01-30 04:40:00,14.3,11.7,29.66,North,355,3.0,14.0,89,0.00,,---,0.00,VWS V13.01,2013-01-30 10:40:00,
2013-01-30 04:45:00,14.3,11.7,29.66,NW,321,4.0,14.0,89,0.00,,---,0.00,VWS V13.01,2013-01-30 10:45:00,
2013-01-30 04:50:00,14.1,11.5,29.68,North,349,3.0,12.0,89,0.00,,---,0.00,VWS V13.01,2013-01-30 10:50:00,
2013-01-30 04:55:00,14.1,11.5,29.68,North,5,5.0,13.0,89,0.00,,---,0.00,VWS V13.01,2013-01-30 10:55:00,
2013-01-30 05:01:00,13.9,11.3,29.69,NNW,338,3.0,13.0,89,0.00,,---,0.00,VWS V13.01,2013-01-30 11:01:00,
2013-01-30 05:06:00,13.8,11.2,29.69,North,355,9.0,19.0,89,0.00,,---,0.00,VWS V13.01,2013-01-30 11:06:00,
2013-01-30 05:11:00,13.7,11.1,29.69,NNW,348,5.0,19.0,89,0.00,,---,0.00,VWS V13.01,2013-01-30 11:11:00,
2013-01-30 05:16:00,13.6,11.0,29.71,NNW,334,5.0,19.0,89,0.00,,---,0.00,VWS V13.01,2013-01-30 11:16:00,
2013-01-30 05:22:00,13.5,10.6,29.71,NNW,336,13.0,17.0,88,0.00,,---,0.00,VWS V13.01,2013-01-30 11:22:00,
2013-01-30 05:27:00,13.4,10.5,29.71,NNW,338,11.0,17.0,88,0.00,,---,0.00,VWS V13.01,2013-01-30 11:27:00,
2013-01-30 05:32:00,13.3,10.4,29.71,NNW,346,6.0,12.0,88,0.00,,---,0.00,VWS V13.01,2013-01-30 11:32:00,
2013-01-30 05:38:00,13.2,10.3,29.71,North,5,10.0,14.0,88,0.00,,---,0.00,VWS V13.01,2013-01-30 11:38:00,
2013-01-30 05:43:00,13.1,10.5,29.71,NNW,329,9.0,14.0,89,0.00,,---,0.00,VWS V13.01,2013-01-30 11:43:00,
2013-01-30 05:48:00,13.1,10.2,29.71,NNW,341,3.0,13.0,88,0.00,,---,0.00,VWS V13.01,2013-01-30 11:48:00,
2013-01-30 05:53:00,12.9,10.0,29.71,NNW,336,2.0,15.0,88,0.00,,---,0.00,VWS V13.01,2013-01-30 11:53:00,
2013-01-30 05:59:00,12.7,9.8,29.71,NNW,339,12.0,15.0,88,0.00,,---,0.00,VWS V13.01,2013-01-30 11:59:00,
2013-01-30 06:04:00,12.6,9.7,29.71,North,9,5.0,18.0,88,0.00,,---,0.00,VWS V13.01,2013-01-30 12:04:00,
2013-01-30 06:09:00,12.5,9.6,29.71,NNW,340,6.0,18.0,88,0.00,,---,0.00,VWS V13.01,2013-01-30 12:09:00,
2013-01-30 06:15:00,12.5,9.6,29.71,NNW,333,12.0,18.0,88,0.00,,---,0.00,VWS V13.01,2013-01-30 12:15:00,
2013-01-30 06:20:00,12.4,9.5,29.71,WNW,294,10.0,14.0,88,0.00,,---,0.00,VWS V13.01,2013-01-30 12:20:00,
2013-01-30 06:25:00,12.3,9.4,29.71,WNW,282,9.0,17.0,88,0.00,,---,0.00,VWS V13.01,2013-01-30 12:25:00,
2013-01-30 06:30:00,12.1,9.2,29.71,NW,316,10.0,17.0,88,0.00,,---,0.00,VWS V13.01,2013-01-30 12:30:00,
2013-01-30 06:35:00,11.9,9.0,29.70,NW,319,7.0,14.0,88,0.00,,---,0.00,VWS V13.01,2013-01-30 12:35:00,
2013-01-30 06:41:00,11.7,8.8,29.70,NNW,346,14.0,17.0,88,0.00,,---,0.00,VWS V13.01,2013-01-30 12:41:00,
2013-01-30 06:46:00,11.1,8.2,29.70,NNW,342,14.0,19.0,88,0.00,,---,0.00,VWS V13.01,2013-01-30 12:46:00,
2013-01-30 06:51:00,10.7,7.8,29.70,NW,322,2.0,15.0,88,0.00,,---,0.00,VWS V13.01,2013-01-30 12:51:00,
2013-01-30 06:56:00,10.2,7.1,29.70,NW,310,12.0,17.0,87,0.00,,---,0.00,VWS V13.01,2013-01-30 12:56:00,
2013-01-30 07:02:00,9.9,6.8,29.70,NW,321,2.0,17.0,87,0.00,,---,0.00,VWS V13.01,2013-01-30 13:02:00,
2013-01-30 07:07:00,9.6,6.5,29.70,NW,323,8.0,15.0,87,0.00,,---,0.00,VWS V13.01,2013-01-30 13:07:00,
2013-01-30 07:12:00,9.4,6.3,29.70,NNW,328,5.0,17.0,87,0.00,,---,0.00,VWS V13.01,2013-01-30 13:12:00,
2013-01-30 07:17:00,9.1,6.0,29.70,North,355,13.0,17.0,87,0.00,,---,0.00,VWS V13.01,2013-01-30 13:17:00,
2013-01-30 07:23:00,8.8,5.7,29.70,NNW,347,11.0,18.0,87,0.00,,---,0.00,VWS V13.01,2013-01-30 13:23:00,
2013-01-30 07:28:00,8.5,5.2,29.70,NNW,342,10.0,19.0,86,0.00,,---,0.00,VWS V13.01,2013-01-30 13:28:00,
2013-01-30 07:33:00,8.3,5.0,29.70,NW,323,9.0,13.0,86,0.00,,---,0.00,VWS V13.01,2013-01-30 13:33:00,
2013-01-30 07:38:00,8.2,4.9,29.70,NNW,340,4.0,18.0,86,0.00,,---,0.00,VWS V13.01,2013-01-30 13:38:00,
2013-01-30 07:44:00,7.8,4.5,29.70,NNW,338,12.0,18.0,86,0.00,,---,0.00,VWS V13.01,2013-01-30 13:44:00,
2013-01-30 07:49:00,7.4,4.1,29.73,NW,310,5.0,16.0,86,0.00,,---,0.00,VWS V13.01,2013-01-30 13:49:00,
2013-01-30 07:54:00,7.1,3.8,29.73,NNW,344,12.0,17.0,86,0.00,,---,0.00,VWS V13.01,2013-01-30 13:54:00,
2013-01-30 07:59:00,6.9,3.9,29.73,NNW,336,3.0,17.0,87,0.00,,---,0.00,VWS V13.01,2013-01-30 13:59:00,
2013-01-30 08:04:00,6.9,3.9,29.74,NNW,342,9.0,16.0,87,0.00,,---,0.00,VWS V13.01,2013-01-30 14:04:00,
2013-01-30 08:10:00,6.8,3.8,29.74,North,10,6.0,16.0,87,0.00,,---,0.00,VWS V13.01,2013-01-30 14:10:00,
2013-01-30 08:15:00,6.8,3.8,29.74,NW,326,9.0,16.0,87,0.00,,---,0.00,VWS V13.01,2013-01-30 14:15:00,
2013-01-30 08:20:00,6.8,3.8,29.75,North,11,9.0,13.0,87,0.00,,---,0.00,VWS V13.01,2013-01-30 14:20:00,
2013-01-30 08:25:00,6.8,3.8,29.75,North,355,5.0,13.0,87,0.00,,---,0.00,VWS V13.01,2013-01-30 14:25:00,
2013-01-30 08:31:00,6.7,3.7,29.75,NNE,20,9.0,14.0,87,0.00,,---,0.00,VWS V13.01,2013-01-30 14:31:00,
2013-01-30 08:36:00,6.5,3.5,29.76,North,5,11.0,14.0,87,0.00,,---,0.00,VWS V13.01,2013-01-30 14:36:00,
2013-01-30 08:41:00,6.5,3.5,29.76,NNW,342,11.0,16.0,87,0.00,,---,0.00,VWS V13.01,2013-01-30 14:41:00,
2013-01-30 08:46:00,6.3,3.3,29.76,North,355,7.0,17.0,87,0.00,,---,0.00,VWS V13.01,2013-01-30 14:46:00,
2013-01-30 08:51:00,6.3,3.3,29.76,NNE,15,5.0,14.0,87,0.00,,---,0.00,VWS V13.01,2013-01-30 14:51:00,
2013-01-30 08:57:00,6.2,3.2,29.76,North,351,4.0,15.0,87,0.00,,---,0.00,VWS V13.01,2013-01-30 14:57:00,
2013-01-30 09:02:00,6.3,3.3,29.75,NNW,340,6.0,15.0,87,0.00,,---,0.00,VWS V13.01,2013-01-30 15:02:00,
2013-01-30 09:07:00,6.4,3.1,29.75,NNW,340,10.0,14.0,86,0.00,,---,0.00,VWS V13.01,2013-01-30 15:07:00,
2013-01-30 09:12:00,6.3,3.0,29.75,NNW,333,5.0,17.0,86,0.00,,---,0.00,VWS V13.01,2013-01-30 15:12:00,
2013-01-30 09:17:00,6.3,3.0,29.77,North,5,6.0,12.0,86,0.00,,---,0.00,VWS V13.01,2013-01-30 15:17:00,
2013-01-30 09:23:00,6.3,3.0,29.77,NNW,336,6.0,13.0,86,0.00,,---,0.00,VWS V13.01,2013-01-30 15:23:00,
2013-01-30 09:28:00,6.2,2.9,29.77,NNE,16,12.0,16.0,86,0.00,,---,0.00,VWS V13.01,2013-01-30 15:28:00,
2013-01-30 09:33:00,6.1,2.8,29.75,North,11,10.0,15.0,86,0.00,,---,0.00,VWS V13.01,2013-01-30 15:33:00,
2013-01-30 09:38:00,5.9,2.6,29.75,NNW,342,11.0,15.0,86,0.00,,---,0.00,VWS V13.01,2013-01-30 15:38:00,
2013-01-30 09:44:00,5.9,2.6,29.75,NNW,348,5.0,15.0,86,0.00,,---,0.00,VWS V13.01,2013-01-30 15:44:00,
2013-01-30 09:49:00,6.0,2.7,29.75,North,351,6.0,13.0,86,0.00,,---,0.00,VWS V13.01,2013-01-30 15:49:00,
2013-01-30 09:54:00,6.1,3.1,29.75,North,355,15.0,15.0,87,0.00,,---,0.00,VWS V13.01,2013-01-30 15:54:00,
2013-01-30 09:59:00,5.8,2.5,29.75,NNW,336,13.0,18.0,86,0.00,,---,0.00,VWS V13.01,2013-01-30 15:59:00,
2013-01-30 10:04:00,5.6,2.1,29.74,NNW,345,10.0,14.0,85,0.00,,---,0.00,VWS V13.01,2013-01-30 16:04:00,
2013-01-30 10:10:00,5.4,1.9,29.74,North,5,13.0,17.0,85,0.00,,---,0.00,VWS V13.01,2013-01-30 16:10:00,
2013-01-30 10:15:00,5.1,1.6,29.74,NNW,347,9.0,19.0,85,0.00,,---,0.00,VWS V13.01,2013-01-30 16:15:00,
2013-01-30 10:20:00,5.0,1.5,29.76,North,11,5.0,14.0,85,0.00,,---,0.00,VWS V13.01,2013-01-30 16:20:00,
2013-01-30 10:25:00,5.0,1.5,29.76,NNW,339,5.0,16.0,85,0.00,,---,0.00,VWS V13.01,2013-01-30 16:25:00,
2013-01-30 10:31:00,5.2,1.7,29.76,WNW,299,9.0,16.0,85,0.00,,---,0.00,VWS V13.01,2013-01-30 16:31:00,
2013-01-30 10:36:00,5.2,1.4,29.76,NW,320,6.0,18.0,84,0.00,,---,0.00,VWS V13.01,2013-01-30 16:36:00,
2013-01-30 10:41:00,5.3,1.5,29.76,North,360,3.0,18.0,84,0.00,,---,0.00,VWS V13.01,2013-01-30 16:41:00,
2013-01-30 10:46:00,5.4,1.6,29.76,NNW,340,7.0,18.0,84,0.00,,---,0.00,VWS V13.01,2013-01-30 16:46:00,
2013-01-30 10:52:00,5.3,1.5,29.76,NNW,330,12.0,18.0,84,0.00,,---,0.00,VWS V13.01,2013-01-30 16:52:00,
2013-01-30 10:57:00,5.1,1.3,29.76,North,355,19.0,19.0,84,0.00,,---,0.00,VWS V13.01,2013-01-30 16:57:00,
2013-01-30 11:02:00,5.1,1.3,29.75,NW,308,5.0,15.0,84,0.00,,---,0.00,VWS V13.01,2013-01-30 17:02:00,
2013-01-30 11:08:00,5.0,1.2,29.75,NW,315,11.0,20.0,84,0.00,,---,0.00,VWS V13.01,2013-01-30 17:08:00,
2013-01-30 11:13:00,5.0,1.2,29.75,NNW,327,4.0,20.0,84,0.00,,---,0.00,VWS V13.01,2013-01-30 17:13:00,
2013-01-30 11:18:00,5.2,1.4,29.75,North,355,9.0,9.0,84,0.00,,---,0.00,VWS V13.01,2013-01-30 17:18:00,
2013-01-30 11:23:00,5.1,1.3,29.75,North,349,5.0,15.0,84,0.00,,---,0.00,VWS V13.01,2013-01-30 17:23:00,
2013-01-30 11:28:00,5.1,1.1,29.75,North,355,3.0,15.0,83,0.00,,---,0.00,VWS V13.01,2013-01-30 17:28:00,
2013-01-30 11:34:00,5.0,1.0,29.75,North,9,11.0,15.0,83,0.00,,---,0.00,VWS V13.01,2013-01-30 17:34:00,
2013-01-30 11:39:00,5.0,3.4,29.75,North,9,5.0,16.0,93,0.00,,---,0.00,VWS V13.01,2013-01-30 17:39:00,
2013-01-30 11:44:00,5.1,1.1,29.75,NNE,15,11.0,16.0,83,0.00,,---,0.00,VWS V13.01,2013-01-30 17:44:00,
2013-01-30 11:50:00,5.1,1.1,29.74,NNW,337,2.0,13.0,83,0.00,,---,0.00,VWS V13.01,2013-01-30 17:50:00,
2013-01-30 11:55:00,5.3,1.3,29.74,NNW,342,9.0,13.0,83,0.00,,---,0.00,VWS V13.01,2013-01-30 17:55:00,
2013-01-30 12:00:00,5.2,0.9,29.74,NNE,17,13.0,15.0,82,0.00,,---,0.00,VWS V13.01,2013-01-30 18:00:00,
2013-01-30 12:05:00,5.4,1.4,29.75,NNW,342,4.0,10.0,83,0.00,,---,0.00,VWS V13.01,2013-01-30 18:05:00,
2013-01-30 12:11:00,5.5,1.2,29.75,North,355,6.0,10.0,82,0.00,,---,0.00,VWS V13.01,2013-01-30 18:11:00,
2013-01-30 12:16:00,5.4,1.1,29.76,NNE,13,6.0,14.0,82,0.00,,---,0.00,VWS V13.01,2013-01-30 18:16:00,
2013-01-30 12:21:00,5.2,0.9,29.76,NNW,327,6.0,12.0,82,0.00,,---,0.00,VWS V13.01,2013-01-30 18:21:00,
2013-01-30 12:26:00,5.3,1.0,29.76,NNW,340,4.0,12.0,82,0.00,,---,0.00,VWS V13.01,2013-01-30 18:26:00,
2013-01-30 12:31:00,5.4,1.1,29.76,NNW,328,12.0,13.0,82,0.00,,---,0.00,VWS V13.01,2013-01-30 18:31:00,
2013-01-30 12:36:00,5.3,1.0,29.76,NNW,344,8.0,14.0,82,0.00,,---,0.00,VWS V13.01,2013-01-30 18:36:00,
2013-01-30 12:42:00,5.1,0.8,29.76,NNE,13,10.0,14.0,82,0.00,,---,0.00,VWS V13.01,2013-01-30 18:42:00,
2013-01-30 12:47:00,5.1,0.8,29.75,North,5,4.0,15.0,82,0.00,,---,0.00,VWS V13.01,2013-01-30 18:47:00,
2013-01-30 12:52:00,5.1,0.8,29.75,NNW,347,5.0,11.0,82,0.00,,---,0.00,VWS V13.01,2013-01-30 18:52:00,
2013-01-30 12:57:00,5.4,1.4,29.75,WNW,300,4.0,12.0,83,0.00,,---,0.00,VWS V13.01,2013-01-30 18:57:00,
2013-01-30 13:02:00,5.1,0.6,29.74,NNE,15,11.0,13.0,81,0.00,,---,0.00,VWS V13.01,2013-01-30 19:02:00,
2013-01-30 13:08:00,4.9,0.4,29.74,NNE,17,3.0,15.0,81,0.00,,---,0.00,VWS V13.01,2013-01-30 19:08:00,
2013-01-30 13:13:00,4.9,0.4,29.74,NW,325,11.0,16.0,81,0.00,,---,0.00,VWS V13.01,2013-01-30 19:13:00,
2013-01-30 13:18:00,4.7,0.2,29.74,NW,311,2.0,8.0,81,0.00,,---,0.00,VWS V13.01,2013-01-30 19:18:00,
2013-01-30 13:24:00,4.8,0.3,29.74,NNE,15,1.0,14.0,81,0.00,,---,0.00,VWS V13.01,2013-01-30 19:24:00,
2013-01-30 13:29:00,4.9,0.4,29.74,NNW,336,4.0,14.0,81,0.00,,---,0.00,VWS V13.01,2013-01-30 19:29:00,
2013-01-30 13:34:00,5.0,0.5,29.73,North,355,4.0,13.0,81,0.00,,---,0.00,VWS V13.01,2013-01-30 19:34:00,
2013-01-30 13:39:00,5.1,0.6,29.73,North,5,4.0,13.0,81,0.00,,---,0.00,VWS V13.01,2013-01-30 19:39:00,
2013-01-30 13:45:00,5.2,0.6,29.73,NW,309,4.0,13.0,81,0.00,,---,0.00,VWS V13.01,2013-01-30 19:45:00,
2013-01-30 13:50:00,4.9,0.4,29.74,NNW,327,6.0,13.0,81,0.00,,---,0.00,VWS V13.01,2013-01-30 19:50:00,
2013-01-30 13:55:00,4.7,0.2,29.74,North,9,4.0,13.0,81,0.00,,---,0.00,VWS V13.01,2013-01-30 19:55:00,
2013-01-30 14:01:00,4.7,0.4,29.74,NNW,329,6.0,14.0,82,0.00,,---,0.00,VWS V13.01,2013-01-30 20:01:00,
2013-01-30 14:06:00,4.7,0.4,29.73,NNW,344,4.0,13.0,82,0.00,,---,0.00,VWS V13.01,2013-01-30 20:06:00,
2013-01-30 14:11:00,4.6,0.1,29.73,NW,315,4.0,13.0,81,0.00,,---,0.00,VWS V13.01,2013-01-30 20:11:00,
2013-01-30 14:16:00,4.8,0.5,29.75,NNW,344,6.0,13.0,82,0.00,,---,0.00,VWS V13.01,2013-01-30 20:16:00,
2013-01-30 14:22:00,4.7,0.2,29.75,NNW,338,11.0,15.0,81,0.00,,---,0.00,VWS V13.01,2013-01-30 20:22:00,
2013-01-30 14:27:00,4.7,0.4,29.75,NNW,337,5.0,15.0,82,0.00,,---,0.00,VWS V13.01,2013-01-30 20:27:00,
2013-01-30 14:32:00,4.6,0.1,29.75,NNW,337,10.0,15.0,81,0.00,,---,0.00,VWS V13.01,2013-01-30 20:32:00,
2013-01-30 14:37:00,4.6,0.1,29.75,NNW,348,7.0,16.0,81,0.00,,---,0.00,VWS V13.01,2013-01-30 20:37:00,
2013-01-30 14:43:00,4.6,0.3,29.75,NNW,342,4.0,16.0,82,0.00,,---,0.00,VWS V13.01,2013-01-30 20:43:00,
2013-01-30 14:48:00,4.9,0.6,29.76,NW,304,7.0,12.0,82,0.00,,---,0.00,VWS V13.01,2013-01-30 20:48:00,
2013-01-30 14:53:00,4.8,0.5,29.76,NNW,342,14.0,14.0,82,0.00,,---,0.00,VWS V13.01,2013-01-30 20:53:00,
2013-01-30 14:59:00,4.7,0.4,29.76,NW,321,10.0,14.0,82,0.00,,---,0.00,VWS V13.01,2013-01-30 20:59:00,
2013-01-30 15:04:00,4.7,0.2,29.76,NW,315,3.0,11.0,81,0.00,,---,0.00,VWS V13.01,2013-01-30 21:04:00,
2013-01-30 15:09:00,4.8,0.3,29.76,NNW,345,13.0,13.0,81,0.00,,---,0.00,VWS V13.01,2013-01-30 21:09:00,
2013-01-30 15:14:00,4.9,0.4,29.76,NW,312,11.0,14.0,81,0.00,,---,0.00,VWS V13.01,2013-01-30 21:14:00,
2013-01-30 15:20:00,4.8,0.3,29.76,NW,311,5.0,10.0,81,0.00,,---,0.00,VWS V13.01,2013-01-30 21:20:00,
2013-01-30 15:25:00,4.7,0.2,29.76,NW,312,4.0,15.0,81,0.00,,---,0.00,VWS V13.01,2013-01-30 21:25:00,
2013-01-30 15:30:00,4.8,0.3,29.76,NW,314,9.0,15.0,81,0.00,,---,0.00,VWS V13.01,2013-01-30 21:30:00,
2013-01-30 15:35:00,4.9,0.6,29.77,North,5,4.0,9.0,82,0.00,,---,0.00,VWS V13.01,2013-01-30 21:35:00,
2013-01-30 15:41:00,4.8,0.5,29.77,NNW,328,8.0,13.0,82,0.00,,---,0.00,VWS V13.01,2013-01-30 21:41:00,
2013-01-30 15:46:00,4.7,0.4,29.76,NW,324,3.0,13.0,82,0.00,,---,0.00,VWS V13.01,2013-01-30 21:46:00,
2013-01-30 15:51:00,4.6,0.3,29.76,NW,304,3.0,13.0,82,0.00,,---,0.00,VWS V13.01,2013-01-30 21:51:00,
2013-01-30 15:56:00,4.6,0.3,29.76,North,5,6.0,13.0,82,0.00,,---,0.00,VWS V13.01,2013-01-30 21:56:00,
2013-01-30 16:02:00,4.6,0.3,29.77,West,280,6.0,13.0,82,0.00,,---,0.00,VWS V13.01,2013-01-30 22:02:00,
2013-01-30 16:07:00,4.5,0.2,29.77,North,349,10.0,15.0,82,0.00,,---,0.00,VWS V13.01,2013-01-30 22:07:00,
2013-01-30 16:12:00,4.5,0.2,29.77,NW,319,9.0,15.0,82,0.00,,---,0.00,VWS V13.01,2013-01-30 22:12:00,
2013-01-30 16:17:00,4.5,0.2,29.79,WNW,297,7.0,7.0,82,0.00,,---,0.00,VWS V13.01,2013-01-30 22:17:00,
2013-01-30 16:23:00,4.5,0.2,29.79,North,5,6.0,13.0,82,0.00,,---,0.00,VWS V13.01,2013-01-30 22:23:00,
2013-01-30 16:28:00,4.4,0.1,29.79,North,355,7.0,14.0,82,0.00,,---,0.00,VWS V13.01,2013-01-30 22:28:00,
2013-01-30 16:33:00,4.2,-0.1,29.79,NE,34,11.0,16.0,82,0.00,,---,0.00,VWS V13.01,2013-01-30 22:33:00,
2013-01-30 16:38:00,4.1,-0.2,29.79,North,355,3.0,16.0,82,0.00,,---,0.00,VWS V13.01,2013-01-30 22:38:00,
2013-01-30 16:44:00,4.0,-0.3,29.79,NNW,336,7.0,16.0,82,0.00,,---,0.00,VWS V13.01,2013-01-30 22:44:00,
2013-01-30 16:49:00,4.0,-0.3,29.78,NNW,333,11.0,14.0,82,0.00,,---,0.00,VWS V13.01,2013-01-30 22:49:00,
2013-01-30 16:54:00,3.9,-0.1,29.78,NNW,331,7.0,14.0,83,0.00,,---,0.00,VWS V13.01,2013-01-30 22:54:00,
2013-01-30 16:59:00,3.7,0.0,29.78,West,281,6.0,14.0,84,0.00,,---,0.00,VWS V13.01,2013-01-30 22:59:00,
2013-01-30 17:05:00,3.5,-0.2,29.79,NW,313,2.0,13.0,84,0.00,,---,0.00,VWS V13.01,2013-01-30 23:05:00,
2013-01-30 17:10:00,3.4,-0.3,29.79,WNW,298,6.0,15.0,84,0.00,,---,0.00,VWS V13.01,2013-01-30 23:10:00,
2013-01-30 17:15:00,3.3,-0.4,29.79,North,355,4.0,15.0,84,0.00,,---,0.00,VWS V13.01,2013-01-30 23:15:00,
2013-01-30 17:21:00,3.2,-0.5,29.81,North,360,10.0,14.0,84,0.00,,---,0.00,VWS V13.01,2013-01-30 23:21:00,
2013-01-30 17:26:00,3.1,-0.6,29.81,NNW,338,11.0,14.0,84,0.00,,---,0.00,VWS V13.01,2013-01-30 23:26:00,
2013-01-30 17:31:00,3.1,-0.4,29.81,North,360,4.0,14.0,85,0.00,,---,0.00,VWS V13.01,2013-01-30 23:31:00,
2013-01-30 17:36:00,3.1,-0.4,29.81,WNW,294,10.0,14.0,85,0.00,,---,0.00,VWS V13.01,2013-01-30 23:36:00,
2013-01-30 17:42:00,3.0,-1.0,29.81,NNW,346,7.0,16.0,83,0.00,,---,0.00,VWS V13.01,2013-01-30 23:42:00,
2013-01-30 17:47:00,2.8,-1.2,29.81,NW,323,2.0,18.0,83,0.00,,---,0.00,VWS V13.01,2013-01-30 23:47:00,
2013-01-30 17:52:00,2.8,-1.2,29.81,North,5,8.0,16.0,83,0.00,,---,0.00,VWS V13.01,2013-01-30 23:52:00,
2013-01-30 17:57:00,2.8,-1.2,29.81,North,351,12.0,16.0,83,0.00,,---,0.00,VWS V13.01,2013-01-30 23:57:00,
2013-01-30 18:02:00,2.8,-0.9,29.81,NNW,346,7.0,16.0,84,0.00,,---,0.00,VWS V13.01,2013-01-31 00:02:00,
2013-01-30 18:07:00,2.8,-0.9,29.81,NW,308,5.0,12.0,84,0.00,,---,0.00,VWS V13.01,2013-01-31 00:07:00,
2013-01-30 18:12:00,2.8,-0.9,29.81,NNW,329,7.0,14.0,84,0.00,,---,0.00,VWS V13.01,2013-01-31 00:12:00,
2013-01-30 18:17:00,2.8,-0.9,29.84,NW,316,9.0,9.0,84,0.00,,---,0.00,VWS V13.01,2013-01-31 00:17:00,
2013-01-30 18:23:00,2.7,-1.0,29.84,NW,309,9.0,15.0,84,0.00,,---,0.00,VWS V13.01,2013-01-31 00:23:00,
2013-01-30 18:28:00,2.5,-1.2,29.84,NW,323,4.0,17.0,84,0.00,,---,0.00,VWS V13.01,2013-01-31 00:28:00,
2013-01-30 18:33:00,2.4,-1.3,29.84,NNW,342,10.0,15.0,84,0.00,,---,0.00,VWS V13.01,2013-01-31 00:33:00,
2013-01-30 18:38:00,2.3,-1.4,29.84,NNW,333,5.0,15.0,84,0.00,,---,0.00,VWS V13.01,2013-01-31 00:38:00,
2013-01-30 18:44:00,2.2,-1.5,29.84,NW,321,5.0,17.0,84,0.00,,---,0.00,VWS V13.01,2013-01-31 00:44:00,
2013-01-30 18:49:00,2.1,-1.6,29.84,NNW,335,14.0,16.0,84,0.00,,---,0.00,VWS V13.01,2013-01-31 00:49:00,
2013-01-30 18:54:00,2.0,-1.7,29.84,North,360,9.0,17.0,84,0.00,,---,0.00,VWS V13.01,2013-01-31 00:54:00,
2013-01-30 18:59:00,2.0,-1.7,29.84,NNW,329,8.0,17.0,84,0.00,,---,0.00,VWS V13.01,2013-01-31 00:59:00,
2013-01-30 19:05:00,1.9,-1.8,29.84,NW,312,6.0,18.0,84,0.00,,---,0.00,VWS V13.01,2013-01-31 01:05:00,
2013-01-30 19:10:00,1.9,-1.8,29.84,North,360,12.0,18.0,84,0.00,,---,0.00,VWS V13.01,2013-01-31 01:10:00,
2013-01-30 19:15:00,1.8,-1.9,29.84,NNW,343,3.0,18.0,84,0.00,,---,0.00,VWS V13.01,2013-01-31 01:15:00,
2013-01-30 19:20:00,1.7,-1.8,29.87,NNE,14,9.0,14.0,85,0.00,,---,0.00,VWS V13.01,2013-01-31 01:20:00,
2013-01-30 19:25:00,1.7,-1.8,29.87,NW,313,4.0,14.0,85,0.00,,---,0.00,VWS V13.01,2013-01-31 01:25:00,
2013-01-30 19:31:00,1.7,-1.8,29.87,NNE,18,11.0,14.0,85,0.00,,---,0.00,VWS V13.01,2013-01-31 01:31:00,
2013-01-30 19:36:00,1.6,-1.9,29.87,WNW,295,4.0,14.0,85,0.00,,---,0.00,VWS V13.01,2013-01-31 01:36:00,
2013-01-30 19:41:00,1.5,-2.0,29.87,NNW,336,3.0,14.0,85,0.00,,---,0.00,VWS V13.01,2013-01-31 01:41:00,
2013-01-30 19:47:00,1.5,-2.0,29.87,NNE,23,13.0,17.0,85,0.00,,---,0.00,VWS V13.01,2013-01-31 01:47:00,
2013-01-30 19:52:00,1.5,-2.0,29.87,North,355,6.0,14.0,85,0.00,,---,0.00,VWS V13.01,2013-01-31 01:52:00,
2013-01-30 19:57:00,1.4,-2.0,29.87,NNW,348,8.0,14.0,85,0.00,,---,0.00,VWS V13.01,2013-01-31 01:57:00,
2013-01-30 20:02:00,1.4,-2.0,29.87,North,355,12.0,12.0,85,0.00,,---,0.00,VWS V13.01,2013-01-31 02:02:00,
2013-01-30 20:07:00,1.4,-2.0,29.87,NW,306,5.0,14.0,85,0.00,,---,0.00,VWS V13.01,2013-01-31 02:07:00,
2013-01-30 20:13:00,1.3,-2.2,29.87,North,360,5.0,16.0,85,0.00,,---,0.00,VWS V13.01,2013-01-31 02:13:00,
2013-01-30 20:18:00,1.3,-2.2,29.88,NNW,331,2.0,9.0,85,0.00,,---,0.00,VWS V13.01,2013-01-31 02:18:00,
2013-01-30 20:23:00,1.2,-2.2,29.88,North,360,7.0,14.0,85,0.00,,---,0.00,VWS V13.01,2013-01-31 02:23:00,
2013-01-30 20:28:00,1.1,-2.6,29.88,North,11,11.0,18.0,84,0.00,,---,0.00,VWS V13.01,2013-01-31 02:28:00,
2013-01-30 20:34:00,0.9,-2.8,29.88,North,5,8.0,15.0,84,0.00,,---,0.00,VWS V13.01,2013-01-31 02:34:00,
2013-01-30 20:39:00,0.9,-2.8,29.88,NNE,17,6.0,18.0,84,0.00,,---,0.00,VWS V13.01,2013-01-31 02:39:00,
2013-01-30 20:44:00,0.8,-2.9,29.88,North,5,15.0,18.0,84,0.00,,---,0.00,VWS V13.01,2013-01-31 02:44:00,
2013-01-30 20:49:00,0.8,-2.9,29.88,North,355,3.0,13.0,84,0.00,,---,0.00,VWS V13.01,2013-01-31 02:49:00,
2013-01-30 20:55:00,0.8,-2.9,29.88,NE,36,10.0,17.0,84,0.00,,---,0.00,VWS V13.01,2013-01-31 02:55:00,
2013-01-30 21:00:00,0.8,-2.9,29.88,NNE,16,2.0,17.0,84,0.00,,---,0.00,VWS V13.01,2013-01-31 03:00:00,
2013-01-30 21:05:00,0.7,-3.0,29.88,NNW,337,9.0,15.0,84,0.00,,---,0.00,VWS V13.01,2013-01-31 03:05:00,
2013-01-30 21:10:00,0.6,-3.1,29.88,NNE,21,9.0,21.0,84,0.00,,---,0.00,VWS V13.01,2013-01-31 03:10:00,
2013-01-30 21:16:00,0.5,-3.4,29.88,North,360,6.0,21.0,83,0.00,,---,0.00,VWS V13.01,2013-01-31 03:16:00,
2013-01-30 21:21:00,0.3,-3.6,29.88,North,11,9.0,18.0,83,0.00,,---,0.00,VWS V13.01,2013-01-31 03:21:00,
2013-01-30 21:26:00,0.3,-3.6,29.88,NNW,345,15.0,18.0,83,0.00,,---,0.00,VWS V13.01,2013-01-31 03:26:00,
2013-01-30 21:31:00,0.1,-3.8,29.89,NNW,334,7.0,22.0,83,0.00,,---,0.00,VWS V13.01,2013-01-31 03:31:00,
2013-01-30 21:37:00,0.1,-3.9,29.89,NNW,331,9.0,16.0,83,0.00,,---,0.00,VWS V13.01,2013-01-31 03:37:00,
2013-01-30 21:42:00,0.1,-3.9,29.89,NNW,342,7.0,16.0,83,0.00,,---,0.00,VWS V13.01,2013-01-31 03:42:00,
2013-01-30 21:47:00,0.1,-3.9,29.88,North,5,12.0,17.0,83,0.00,,---,0.00,VWS V13.01,2013-01-31 03:47:00,
2013-01-30 21:53:00,-0.1,-3.9,29.88,NNW,336,11.0,17.0,83,0.00,,---,0.00,VWS V13.01,2013-01-31 03:53:00,
2013-01-30 21:58:00,-0.1,-4.0,29.88,NNW,327,11.0,19.0,83,0.00,,---,0.00,VWS V13.01,2013-01-31 03:58:00,
2013-01-30 22:03:00,-0.1,-4.0,29.88,NNE,16,7.0,14.0,83,0.00,,---,0.00,VWS V13.01,2013-01-31 04:03:00,
2013-01-30 22:08:00,-0.2,-4.1,29.88,North,5,6.0,15.0,83,0.00,,---,0.00,VWS V13.01,2013-01-31 04:08:00,
2013-01-30 22:14:00,-0.2,-4.1,29.88,NNW,347,9.0,15.0,83,0.00,,---,0.00,VWS V13.01,2013-01-31 04:14:00,
2013-01-30 22:19:00,-0.2,-4.1,29.89,North,355,9.0,11.0,83,0.00,,---,0.00,VWS V13.01,2013-01-31 04:19:00,
2013-01-30 22:24:00,-0.3,-4.2,29.89,NNW,327,14.0,14.0,83,0.00,,---,0.00,VWS V13.01,2013-01-31 04:24:00,
2013-01-30 22:29:00,-0.3,-4.2,29.89,North,355,12.0,15.0,83,0.00,,---,0.00,VWS V13.01,2013-01-31 04:29:00,
2013-01-30 22:35:00,-0.3,-4.0,29.89,North,350,6.0,15.0,84,0.00,,---,0.00,VWS V13.01,2013-01-31 04:35:00,
2013-01-30 22:40:00,-0.3,-4.0,29.89,North,350,5.0,15.0,84,0.00,,---,0.00,VWS V13.01,2013-01-31 04:40:00,
2013-01-30 22:45:00,-0.3,-4.0,29.89,NNW,330,9.0,15.0,84,0.00,,---,0.00,VWS V13.01,2013-01-31 04:45:00,
2013-01-30 22:50:00,-0.4,-4.1,29.89,NW,320,8.0,13.0,84,0.00,,---,0.00,VWS V13.01,2013-01-31 04:50:00,
2013-01-30 22:56:00,-0.4,-4.1,29.89,North,351,9.0,14.0,84,0.00,,---,0.00,VWS V13.01,2013-01-31 04:56:00,
2013-01-30 23:01:00,-0.5,-4.2,29.89,North,9,3.0,15.0,84,0.00,,---,0.00,VWS V13.01,2013-01-31 05:01:00,
2013-01-30 23:02:00,-0.5,-4.2,29.89,NNE,26,9.0,10.0,84,0.00,,---,0.00,VWS V13.01,2013-01-31 05:02:00,
2013-01-30 23:07:00,-0.5,-4.2,29.89,NNW,336,2.0,14.0,84,0.00,,---,0.00,VWS V13.01,2013-01-31 05:07:00,
2013-01-30 23:13:00,-0.6,-4.3,29.89,NW,317,2.0,15.0,84,0.00,,---,0.00,VWS V13.01,2013-01-31 05:13:00,
2013-01-30 23:18:00,-0.6,-4.3,29.89,North,5,4.0,9.0,84,0.00,,---,0.00,VWS V13.01,2013-01-31 05:18:00,
2013-01-30 23:23:00,-0.7,-4.4,29.89,NW,308,3.0,14.0,84,0.00,,---,0.00,VWS V13.01,2013-01-31 05:23:00,
2013-01-30 23:28:00,-0.7,-4.4,29.89,NW,326,7.0,16.0,84,0.00,,---,0.00,VWS V13.01,2013-01-31 05:28:00,
2013-01-30 23:34:00,-0.7,-4.4,29.89,NNW,342,4.0,8.0,84,0.00,,---,0.00,VWS V13.01,2013-01-31 05:34:00,
2013-01-30 23:39:00,-0.7,-4.4,29.89,NNW,338,6.0,11.0,84,0.00,,---,0.00,VWS V13.01,2013-01-31 05:39:00,
2013-01-30 23:44:00,-0.8,-4.5,29.89,NNW,344,4.0,13.0,84,0.00,,---,0.00,VWS V13.01,2013-01-31 05:44:00,
2013-01-30 23:49:00,-0.8,-4.5,29.90,North,350,2.0,9.0,84,0.00,,---,0.00,VWS V13.01,2013-01-31 05:49:00,
2013-01-30 23:55:00,-0.8,-4.5,29.90,NW,318,2.0,12.0,84,0.00,,---,0.00,VWS V13.01,2013-01-31 05:55:00,